Warnock, Ohio
Current Conditions -  °F | °C
As of 12:38 AM on Thursday 27 Nov 2014 (Local Time) from KHLG Reporting Station
Moderate Fog Moderate Fog  
Wind Chill: 32°   Ceiling: 200
Heat Index: 32°   Visibility: 0.25mi
Dew Point: 31°   Wind: 0mph
Humidity: 96%   Direction: NA
Pressure: 30"   Gusts: NA
Location:  40.02°N, 80.94°W
Report Text: KHLG 270538Z AUTO 00000KT 1/4SM R03/2400VP6000FT FG BKN002 OVC040 00/M01 A3000 RMK AO2 T00001006
Loading
Personal Weather Stations






























Interactive Weather Map New forecast layout! Learn more

10-Day Weather Forecast

Advertisements
Track Severe Weather on mobile